KSQI/SQI METAR and TAF weather

Enter ICAO airport designator
Station Type Date Time Source
KSQI METAR 2021/08/02 01:56 UTC NOAA

KSQI 020156Z 02003KT 10SM CLR 18/13 A3012 RMK AO2 SLP065 T01830133


Station Type Date Time Source
KSQI Decoded METAR 2021/08/02 01:56 UTC NOAA

Sterling Rockfalls, IL, United States (KSQI) 41-45N 089-40W
Aug 01, 2021 - 09:56 PM EDT / 2021.08.02 0156 UTC
Wind: from the NNE (020 degrees) at 3 MPH (3 KT):0
Visibility: 10 mile(s):0
Sky conditions: clear
Temperature: 64.9 F (18.3 C)
Dew Point: 55.9 F (13.3 C)
Relative Humidity: 72%
Pressure (altimeter): 30.12 in. Hg (1019 hPa)
ob: KSQI 020156Z 02003KT 10SM CLR 18/13 A3012 RMK AO2 SLP065 T01830133
cycle: 2

Station Type Date Time Source
KSQI TAF UTC NOAA

Error!

Example: see airport list